Time;durP1;ratioP1;P1;durP2;ratioP2;P2;SDS_P1;SDS_P2;PMS_P1;PMS_P2;Temp;Humidity;BMP_temperature;BMP_pressure;BME280_temperature;BME280_humidity;BME280_pressure;Samples;Min_cycle;Max_cycle;Signal;HPM_P1;HPM_P2
2021/06/01 00:01:26;;;;;;;7.17;5.00;;;14.70;99.90;;;;;;5082833;28;20238;-81
2021/06/01 00:03:52;;;;;;;5.00;4.50;;;14.70;99.90;;;;;;5076356;28;20235;-81
2021/06/01 00:06:19;;;;;;;7.10;4.63;;;14.70;99.90;;;;;;5095130;28;20604;-81
2021/06/01 00:08:46;;;;;;;7.00;4.77;;;14.60;99.90;;;;;;5094729;28;20264;-81
2021/06/01 00:11:15;;;;;;;8.77;4.80;;;14.60;99.90;;;;;;5087460;28;20234;-81
2021/06/01 00:13:42;;;;;;;5.27;4.63;;;14.50;99.90;;;;;;5091507;28;20244;-81
2021/06/01 00:16:09;;;;;;;4.63;4.10;;;14.50;99.90;;;;;;5093577;28;20276;-82
2021/06/01 00:18:36;;;;;;;5.37;4.17;;;14.50;99.90;;;;;;5094448;28;20281;-81
2021/06/01 00:21:05;;;;;;;4.90;4.20;;;14.50;99.90;;;;;;5082051;28;20198;-81
2021/06/01 00:23:33;;;;;;;5.30;4.30;;;14.50;99.90;;;;;;5094037;28;20198;-81
2021/06/01 00:26:00;;;;;;;5.70;4.00;;;14.50;99.90;;;;;;5086209;28;20206;-81
2021/06/01 00:28:28;;;;;;;7.23;4.33;;;14.60;99.90;;;;;;5075162;28;20230;-80
2021/06/01 00:30:54;;;;;;;3.90;3.50;;;14.50;99.90;;;;;;5073905;28;20195;-81
2021/06/01 00:33:21;;;;;;;5.27;3.70;;;14.60;99.90;;;;;;5080814;28;20235;-81
2021/06/01 00:35:47;;;;;;;4.83;3.87;;;14.50;99.90;;;;;;5090599;28;20226;-81
2021/06/01 00:38:14;;;;;;;5.33;3.50;;;14.50;99.90;;;;;;5090416;28;20230;-82
2021/06/01 00:40:40;;;;;;;5.73;3.70;;;14.60;99.90;;;;;;5086935;28;20286;-81
2021/06/01 00:43:07;;;;;;;3.73;3.27;;;14.50;99.90;;;;;;5094504;28;20296;-81
2021/06/01 00:45:35;;;;;;;5.13;3.87;;;14.60;99.90;;;;;;5094006;28;20271;-81
2021/06/01 00:48:01;;;;;;;4.87;3.43;;;14.70;99.90;;;;;;5094046;28;20244;-81
2021/06/01 00:50:29;;;;;;;4.33;3.27;;;14.70;99.90;;;;;;5090406;28;20202;-81
2021/06/01 00:52:57;;;;;;;3.93;3.40;;;14.70;99.90;;;;;;5093750;28;20236;-81
2021/06/01 00:55:24;;;;;;;4.53;3.53;;;14.80;99.90;;;;;;5085912;28;20194;-81
2021/06/01 00:57:51;;;;;;;3.57;2.93;;;14.80;99.90;;;;;;5093324;28;20245;-81
2021/06/01 01:00:36;;;;;;;4.17;3.27;;;14.80;99.90;;;;;;5084859;28;20194;-81
2021/06/01 01:03:06;;;;;;;4.07;3.20;;;14.70;99.90;;;;;;5089503;28;20244;-81
2021/06/01 01:05:35;;;;;;;5.70;3.33;;;14.70;99.90;;;;;;5093124;28;20251;-81
2021/06/01 01:08:18;;;;;;;3.90;3.30;;;14.60;99.90;;;;;;5093917;28;20669;-81
2021/06/01 01:10:48;;;;;;;4.47;3.30;;;14.50;99.90;;;;;;5092260;28;20205;-81
2021/06/01 01:13:16;;;;;;;4.00;3.30;;;14.50;99.90;;;;;;5093567;28;20209;-81
2021/06/01 01:15:44;;;;;;;5.40;3.23;;;14.50;99.90;;;;;;5075765;28;20199;-81
2021/06/01 01:18:16;;;;;;;4.63;3.07;;;14.40;99.90;;;;;;5073446;28;20287;-81
2021/06/01 01:20:50;;;;;;;4.50;2.93;;;14.40;99.90;;;;;;5089856;28;20290;-81
2021/06/01 01:23:19;;;;;;;6.53;3.60;;;14.50;99.90;;;;;;5085617;28;20233;-81
2021/06/01 01:25:58;;;;;;;4.27;3.10;;;14.40;99.90;;;;;;5093452;28;20198;-81
2021/06/01 01:28:32;;;;;;;4.20;3.30;;;14.50;99.90;;;;;;5080022;28;20222;-81
2021/06/01 01:31:08;;;;;;;3.90;3.10;;;14.50;99.90;;;;;;5082242;28;20259;-81
2021/06/01 01:33:39;;;;;;;5.03;3.17;;;14.50;99.90;;;;;;5081346;28;20282;-81
2021/06/01 01:36:08;;;;;;;3.73;3.30;;;14.40;99.90;;;;;;5092975;28;20205;-80
2021/06/01 01:38:37;;;;;;;5.07;3.37;;;14.40;99.90;;;;;;5092268;28;20257;-81
2021/06/01 01:41:10;;;;;;;3.63;3.13;;;14.30;99.90;;;;;;5093070;28;20246;-81
2021/06/01 01:43:38;;;;;;;4.27;2.93;;;14.20;99.90;;;;;;5086797;28;20623;-81
2021/06/01 01:46:09;;;;;;;4.87;3.23;;;14.30;99.90;;;;;;5087009;28;20206;-81
2021/06/01 01:49:00;;;;;;;4.43;3.00;;;14.30;99.90;;;;;;5092910;28;20635;-81
2021/06/01 01:51:31;;;;;;;5.67;3.27;;;14.20;99.90;;;;;;5073314;28;20213;-81
2021/06/01 01:53:59;;;;;;;6.70;3.03;;;14.10;99.90;;;;;;5092127;28;20286;-81
2021/06/01 01:56:31;;;;;;;4.97;2.90;;;14.10;99.90;;;;;;5092583;28;20274;-81
2021/06/01 01:58:58;;;;;;;5.07;3.30;;;14.10;99.90;;;;;;5091836;28;20304;-81
2021/06/01 02:01:25;;;;;;;3.43;3.13;;;14.10;99.90;;;;;;5082972;28;20199;-81
2021/06/01 02:03:53;;;;;;;4.17;3.07;;;14.10;99.90;;;;;;5092787;28;20236;-81
2021/06/01 02:06:20;;;;;;;5.83;3.20;;;14.10;99.90;;;;;;5092936;28;20566;-81
2021/06/01 02:08:47;;;;;;;5.67;3.33;;;14.10;99.90;;;;;;5091200;28;20247;-81
2021/06/01 02:11:13;;;;;;;4.47;3.20;;;14.10;99.90;;;;;;5091470;28;20201;-82
2021/06/01 02:13:45;;;;;;;3.40;2.93;;;14.00;99.90;;;;;;5086190;28;20203;-81
2021/06/01 02:16:11;;;;;;;4.87;3.20;;;13.90;99.90;;;;;;5091958;28;20244;-81
2021/06/01 02:18:37;;;;;;;3.77;3.20;;;13.90;99.90;;;;;;5091863;28;20202;-81
2021/06/01 02:21:20;;;;;;;5.07;3.33;;;13.90;99.90;;;;;;5091889;28;20271;-81
2021/06/01 02:23:54;;;;;;;8.70;3.43;;;13.90;99.90;;;;;;5079202;28;20202;-81
2021/06/01 02:26:34;;;;;;;4.70;2.97;;;13.90;99.90;;;;;;5084524;28;20665;-81
2021/06/01 02:29:05;;;;;;;5.40;3.70;;;13.90;99.90;;;;;;5082528;28;20284;-81
2021/06/01 02:31:37;;;;;;;5.07;3.33;;;13.90;99.90;;;;;;5091553;28;20700;-81
2021/06/01 02:34:06;;;;;;;5.20;2.83;;;13.90;99.90;;;;;;5092407;28;20210;-81
2021/06/01 02:36:36;;;;;;;6.87;3.37;;;13.90;99.90;;;;;;5090061;28;20257;-81
2021/06/01 02:39:04;;;;;;;6.10;3.10;;;13.90;99.90;;;;;;5071592;28;20754;-81
2021/06/01 02:41:31;;;;;;;6.07;3.33;;;13.90;99.90;;;;;;5074025;28;20568;-81
2021/06/01 02:43:57;;;;;;;5.50;3.00;;;13.90;99.90;;;;;;5078759;28;20232;-81
2021/06/01 02:46:24;;;;;;;5.47;3.20;;;13.90;99.90;;;;;;5076127;28;20659;-81
2021/06/01 02:48:52;;;;;;;6.77;3.10;;;13.80;99.90;;;;;;5071963;28;20238;-81
2021/06/01 02:51:20;;;;;;;5.03;3.07;;;13.80;99.90;;;;;;5076997;28;20236;-81
2021/06/01 02:53:52;;;;;;;6.10;3.23;;;13.80;99.90;;;;;;5082928;28;20571;-81
2021/06/01 02:56:20;;;;;;;4.93;3.27;;;13.80;99.90;;;;;;5073941;28;20258;-81
2021/06/01 02:58:48;;;;;;;4.53;3.03;;;13.90;99.90;;;;;;5071533;28;20194;-81
2021/06/01 03:01:16;;;;;;;5.53;3.17;;;13.90;99.90;;;;;;5055531;28;20205;-81
2021/06/01 03:03:47;;;;;;;3.87;3.50;;;14.00;99.90;;;;;;5091446;28;20233;-81
2021/06/01 03:06:14;;;;;;;3.97;3.00;;;14.00;99.90;;;;;;5073810;28;20202;-81
2021/06/01 03:08:40;;;;;;;4.13;3.13;;;14.00;99.90;;;;;;5090305;28;20248;-81
2021/06/01 03:11:09;;;;;;;6.90;2.93;;;14.00;99.90;;;;;;5091742;28;20292;-81
2021/06/01 03:13:36;;;;;;;4.80;3.07;;;13.90;99.90;;;;;;5091667;28;20205;-80
2021/06/01 03:16:03;;;;;;;5.60;2.87;;;13.80;99.90;;;;;;5091960;28;20210;-81
2021/06/01 03:18:30;;;;;;;4.50;3.00;;;13.80;99.90;;;;;;5089488;28;20241;-81
2021/06/01 03:20:57;;;;;;;5.13;3.20;;;13.80;99.90;;;;;;5087080;28;20580;-81
2021/06/01 03:23:24;;;;;;;4.37;3.27;;;13.80;99.90;;;;;;5081523;28;20617;-81
2021/06/01 03:25:51;;;;;;;7.20;2.53;;;13.70;99.90;;;;;;5079647;28;20233;-81
2021/06/01 03:28:20;;;;;;;5.03;2.80;;;13.60;99.90;;;;;;5090836;28;20259;-81
2021/06/01 03:30:47;;;;;;;5.63;2.90;;;13.50;99.90;;;;;;5078012;28;20203;-81
2021/06/01 03:33:13;;;;;;;5.00;3.20;;;13.60;99.90;;;;;;5082618;28;20240;-81
2021/06/01 03:35:40;;;;;;;4.27;2.80;;;13.70;99.90;;;;;;5091193;28;20199;-81
2021/06/01 03:38:07;;;;;;;4.40;3.10;;;13.70;99.90;;;;;;5091336;28;20648;-80
2021/06/01 03:40:34;;;;;;;5.13;3.20;;;13.80;99.90;;;;;;5076537;28;20682;-81
2021/06/01 03:43:00;;;;;;;4.47;3.40;;;13.80;99.90;;;;;;5088088;28;20210;-81
2021/06/01 03:45:28;;;;;;;5.10;2.60;;;13.80;99.90;;;;;;5091475;28;20284;-81
2021/06/01 03:47:55;;;;;;;3.80;2.90;;;13.90;99.90;;;;;;5090513;28;20670;-81
2021/06/01 03:50:22;;;;;;;6.33;3.23;;;13.90;99.90;;;;;;5091530;28;20194;-81
2021/06/01 03:52:49;;;;;;;3.97;2.93;;;13.80;99.90;;;;;;5088326;28;20241;-80
2021/06/01 03:55:16;;;;;;;5.37;2.90;;;13.80;99.90;;;;;;5088167;28;20234;-81
2021/06/01 03:57:45;;;;;;;5.90;3.13;;;13.80;99.90;;;;;;5086749;28;20301;-81
2021/06/01 04:00:15;;;;;;;6.67;3.23;;;13.80;99.90;;;;;;5091074;28;20611;-81
2021/06/01 04:02:44;;;;;;;4.03;2.93;;;13.90;99.90;;;;;;5089797;28;20267;-80
2021/06/01 04:05:11;;;;;;;6.47;2.80;;;13.80;99.90;;;;;;5090279;28;20284;-81
2021/06/01 04:07:38;;;;;;;4.00;3.20;;;13.80;99.90;;;;;;5090353;28;20743;-81
2021/06/01 04:10:06;;;;;;;4.93;3.00;;;13.80;99.90;;;;;;5092898;28;20198;-81
2021/06/01 04:12:33;;;;;;;3.50;2.90;;;13.70;99.90;;;;;;5081747;28;20199;-81
2021/06/01 04:14:59;;;;;;;6.00;3.20;;;13.60;99.90;;;;;;5085956;28;20661;-81
2021/06/01 04:17:26;;;;;;;4.60;3.20;;;13.60;99.90;;;;;;5081234;28;20270;-81
2021/06/01 04:19:55;;;;;;;3.87;2.83;;;13.60;99.90;;;;;;5079377;28;20197;-81
2021/06/01 04:22:21;;;;;;;4.20;3.00;;;13.60;99.90;;;;;;5093449;28;20229;-81
2021/06/01 04:24:48;;;;;;;4.00;2.93;;;13.60;99.90;;;;;;5080596;28;20225;-81
2021/06/01 04:27:14;;;;;;;3.50;2.80;;;13.60;99.90;;;;;;5077366;28;20226;-80
2021/06/01 04:29:41;;;;;;;4.30;2.70;;;13.70;99.90;;;;;;5086425;28;20289;-81
2021/06/01 04:32:08;;;;;;;4.90;3.30;;;13.80;99.90;;;;;;5094332;28;20230;-81
2021/06/01 04:34:36;;;;;;;3.60;3.03;;;13.90;99.90;;;;;;5094823;28;20290;-81
2021/06/01 04:37:04;;;;;;;3.80;3.07;;;13.90;99.90;;;;;;5093700;28;20261;-81
2021/06/01 04:39:32;;;;;;;6.00;3.37;;;14.00;99.90;;;;;;5094320;28;20329;-81
2021/06/01 04:41:59;;;;;;;5.63;3.20;;;14.00;99.90;;;;;;5093443;28;20237;-81
2021/06/01 04:44:26;;;;;;;4.10;3.10;;;14.10;99.90;;;;;;5092504;28;20214;-81
2021/06/01 04:46:52;;;;;;;4.97;2.77;;;14.10;99.90;;;;;;5086884;28;20777;-82
2021/06/01 04:49:20;;;;;;;3.60;2.80;;;14.20;99.90;;;;;;5093733;28;20288;-81
2021/06/01 04:51:46;;;;;;;4.63;2.80;;;14.20;99.90;;;;;;5086798;28;20323;-80
2021/06/01 04:54:14;;;;;;;4.40;3.00;;;14.20;99.90;;;;;;5093697;28;20230;-81
2021/06/01 04:56:41;;;;;;;5.50;3.00;;;14.20;99.90;;;;;;5078534;28;20261;-80
2021/06/01 04:59:07;;;;;;;5.93;2.80;;;14.30;99.90;;;;;;5081962;28;20202;-81
2021/06/01 05:01:33;;;;;;;4.67;3.00;;;14.40;99.90;;;;;;5094062;28;20226;-81
2021/06/01 05:04:00;;;;;;;4.17;2.93;;;14.50;99.90;;;;;;5093311;28;20209;-81
2021/06/01 05:06:27;;;;;;;4.80;2.70;;;14.50;99.90;;;;;;5093092;28;20230;-80
2021/06/01 05:08:53;;;;;;;4.63;2.77;;;14.70;99.90;;;;;;5093538;28;20252;-79
2021/06/01 05:11:21;;;;;;;4.70;2.80;;;14.80;99.90;;;;;;5092994;28;20198;-81
2021/06/01 05:13:48;;;;;;;6.40;3.30;;;14.80;99.90;;;;;;5094956;28;20650;-83
2021/06/01 05:16:15;;;;;;;5.07;2.97;;;14.90;99.90;;;;;;5092889;28;20738;-84
2021/06/01 05:18:42;;;;;;;4.70;2.73;;;15.10;99.90;;;;;;5091098;28;20292;-85
2021/06/01 05:21:09;;;;;;;4.23;2.90;;;15.30;99.90;;;;;;5093881;28;20199;-84
2021/06/01 05:23:36;;;;;;;4.30;2.80;;;15.50;99.90;;;;;;5076724;28;20692;-84
2021/06/01 05:26:03;;;;;;;5.60;2.97;;;15.70;99.90;;;;;;5082839;28;20252;-85
2021/06/01 05:28:31;;;;;;;5.63;2.60;;;16.20;99.90;;;;;;5095124;28;20218;-85
2021/06/01 05:31:05;;;;;;;4.13;3.00;;;16.90;99.90;;;;;;5092856;28;20679;-85
2021/06/01 05:33:33;;;;;;;3.30;2.70;;;17.60;99.90;;;;;;5079722;28;20666;-85
2021/06/01 05:36:00;;;;;;;5.53;2.90;;;18.00;99.90;;;;;;5070878;28;20210;-83
2021/06/01 05:38:30;;;;;;;4.73;3.00;;;18.50;99.90;;;;;;5092651;28;20717;-84
2021/06/01 05:40:57;;;;;;;4.30;2.67;;;18.90;99.90;;;;;;5093049;28;20647;-85
2021/06/01 05:43:24;;;;;;;5.03;2.93;;;19.20;99.90;;;;;;5093802;28;20199;-82
2021/06/01 05:45:52;;;;;;;4.70;2.50;;;19.60;99.90;;;;;;5070383;28;20199;-84
2021/06/01 05:48:19;;;;;;;3.80;2.63;;;19.70;99.90;;;;;;5063435;28;20271;-81
2021/06/01 05:50:46;;;;;;;3.50;2.45;;;20.20;99.90;;;;;;5092523;28;20576;-79
2021/06/01 05:53:13;;;;;;;6.15;2.90;;;20.60;99.90;;;;;;5093054;28;20286;-84
2021/06/01 05:55:40;;;;;;;5.80;2.80;;;21.10;99.90;;;;;;5091995;28;20198;-80
2021/06/01 05:58:06;;;;;;;3.83;2.90;;;21.50;99.90;;;;;;5081429;28;20301;-81
2021/06/01 06:00:33;;;;;;;4.90;2.70;;;21.40;99.90;;;;;;5092527;28;20673;-79
2021/06/01 06:03:02;;;;;;;4.50;2.60;;;21.50;99.90;;;;;;5092182;28;20229;-79
2021/06/01 06:05:29;;;;;;;4.72;2.40;;;21.40;99.90;;;;;;5092575;28;20205;-80
2021/06/01 06:07:55;;;;;;;3.83;2.75;;;21.50;99.90;;;;;;5091229;28;20217;-80
2021/06/01 06:10:22;;;;;;;5.28;2.88;;;21.50;99.90;;;;;;5085289;28;20223;-79
2021/06/01 06:12:49;;;;;;;3.38;2.50;;;21.10;99.90;;;;;;5077796;28;20662;-81
2021/06/01 06:15:17;;;;;;;5.18;2.95;;;20.80;99.90;;;;;;5073481;28;20269;-80
2021/06/01 06:17:48;;;;;;;4.07;2.65;;;20.80;99.90;;;;;;5074696;28;20705;-80
2021/06/01 06:20:16;;;;;;;5.30;2.60;;;21.20;99.90;;;;;;5092323;28;20198;-79
2021/06/01 06:22:42;;;;;;;3.63;2.60;;;21.40;99.90;;;;;;5092107;28;20552;-80
2021/06/01 06:25:11;;;;;;;4.18;2.83;;;21.50;99.90;;;;;;5092623;28;20240;-80
2021/06/01 06:27:39;;;;;;;3.05;2.60;;;22.00;99.90;;;;;;5090861;28;20245;-80
2021/06/01 06:30:08;;;;;;;5.03;3.13;;;22.20;99.90;;;;;;5092179;28;20229;-79
2021/06/01 06:32:38;;;;;;;4.35;2.67;;;22.30;99.90;;;;;;5083369;28;20286;-78
2021/06/01 06:35:12;;;;;;;3.25;2.72;;;22.20;99.90;;;;;;5076031;28;20862;-80
2021/06/01 06:37:40;;;;;;;5.18;3.00;;;22.10;99.90;;;;;;5091800;28;20841;-79
2021/06/01 06:40:09;;;;;;;3.80;2.38;;;22.40;99.90;;;;;;5086792;28;20199;-80
2021/06/01 06:42:36;;;;;;;4.05;2.45;;;22.50;99.90;;;;;;5076555;28;20639;-79
2021/06/01 06:45:04;;;;;;;2.95;2.35;;;22.80;99.90;;;;;;5081554;28;20206;-81
2021/06/01 06:47:42;;;;;;;5.18;2.97;;;22.70;99.90;;;;;;5078307;28;20628;-81
2021/06/01 06:50:11;;;;;;;4.85;2.60;;;22.40;99.90;;;;;;5077465;28;20204;-80
2021/06/01 06:52:37;;;;;;;5.18;3.03;;;23.10;99.90;;;;;;5088190;28;21113;-80
2021/06/01 06:55:08;;;;;;;3.63;2.90;;;23.40;99.90;;;;;;5090354;28;20213;-80
2021/06/01 06:57:35;;;;;;;4.18;2.60;;;24.20;99.90;;;;;;5083060;28;20219;-81
2021/06/01 07:00:03;;;;;;;2.95;2.28;;;25.40;99.90;;;;;;5084016;28;20298;-81
2021/06/01 07:02:31;;;;;;;4.82;2.72;;;25.90;99.90;;;;;;5084524;28;20195;-85
2021/06/01 07:04:58;;;;;;;4.60;2.60;;;25.20;99.90;;;;;;5080073;28;20206;-81
2021/06/01 07:07:24;;;;;;;4.78;2.78;;;25.10;99.90;;;;;;5082904;28;20236;-82
2021/06/01 07:09:51;;;;;;;4.13;2.60;;;25.50;99.90;;;;;;5090750;28;20361;-81
2021/06/01 07:12:19;;;;;;;4.28;2.65;;;26.00;99.90;;;;;;5067262;28;20190;-80
2021/06/01 07:14:49;;;;;;;3.85;2.67;;;26.30;99.90;;;;;;5080469;28;20302;-80
2021/06/01 07:17:16;;;;;;;3.50;2.65;;;25.80;99.90;;;;;;5081333;28;20305;-81
2021/06/01 07:19:45;;;;;;;5.95;3.03;;;25.60;99.90;;;;;;5085298;28;20734;-81
2021/06/01 07:22:11;;;;;;;4.75;2.90;;;25.10;99.90;;;;;;5080067;28;20201;-82
2021/06/01 07:24:38;;;;;;;4.20;2.75;;;24.50;99.90;;;;;;5081451;28;20205;-81
2021/06/01 07:27:05;;;;;;;4.72;2.75;;;24.30;99.90;;;;;;5079788;28;20215;-81
2021/06/01 07:29:33;;;;;;;3.53;3.00;;;24.40;99.90;;;;;;5080675;28;20229;-81
2021/06/01 07:32:00;;;;;;;5.70;3.03;;;24.00;99.90;;;;;;5089628;28;20226;-81
2021/06/01 07:34:26;;;;;;;5.00;2.72;;;24.70;99.90;;;;;;5088764;28;20717;-81
2021/06/01 07:36:53;;;;;;;5.10;2.75;;;24.80;99.90;;;;;;5089023;28;20306;-81
2021/06/01 07:39:19;;;;;;;5.53;3.03;;;24.50;99.90;;;;;;5077417;28;20318;-82
2021/06/01 07:41:46;;;;;;;7.43;3.13;;;25.60;99.90;;;;;;5080979;28;20237;-80
2021/06/01 07:44:12;;;;;;;4.10;2.72;;;26.10;99.90;;;;;;5077820;28;20229;-81
2021/06/01 07:46:41;;;;;;;3.60;2.67;;;25.50;99.90;;;;;;5088933;28;20245;-80
2021/06/01 07:49:09;;;;;;;3.15;2.78;;;25.50;99.90;;;;;;5082063;28;20199;-79
2021/06/01 07:51:36;;;;;;;5.50;2.88;;;26.30;99.90;;;;;;5092055;28;20199;-84
2021/06/01 07:54:04;;;;;;;5.22;3.05;;;26.80;99.90;;;;;;5093361;28;20279;-80
2021/06/01 07:56:31;;;;;;;3.90;2.70;;;27.50;97.80;;;;;;5093746;28;20677;-81
2021/06/01 07:58:58;;;;;;;8.32;2.72;;;26.80;97.40;;;;;;5102960;28;20268;-81
2021/06/01 08:01:25;;;;;;;4.10;3.08;;;26.90;97.40;;;;;;5104407;28;20226;-85
2021/06/01 08:03:52;;;;;;;3.50;2.35;;;27.00;98.10;;;;;;5095257;28;20199;-82
2021/06/01 08:06:19;;;;;;;3.47;2.70;;;27.00;98.00;;;;;;5093910;28;20701;-82
2021/06/01 08:08:45;;;;;;;4.80;2.60;;;27.80;98.70;;;;;;5086416;28;20291;-81
2021/06/01 08:11:12;;;;;;;2.80;2.50;;;28.20;96.60;;;;;;5108322;28;20722;-83
2021/06/01 08:13:38;;;;;;;9.48;3.40;;;28.30;96.80;;;;;;5088340;28;20199;-81
2021/06/01 08:16:05;;;;;;;5.03;2.30;;;29.00;95.60;;;;;;5084156;28;20570;-82
2021/06/01 08:18:36;;;;;;;3.60;2.70;;;28.40;96.40;;;;;;5092225;28;20225;-83
2021/06/01 08:21:08;;;;;;;4.22;2.60;;;28.40;94.50;;;;;;5083943;28;20202;-82
2021/06/01 08:23:37;;;;;;;4.22;2.83;;;28.60;94.30;;;;;;5101941;28;20735;-83
2021/06/01 08:26:04;;;;;;;4.63;2.90;;;29.10;93.90;;;;;;5069172;28;20291;-81
2021/06/01 08:28:33;;;;;;;3.47;2.90;;;28.90;92.80;;;;;;5092024;28;20253;-83
2021/06/01 08:31:00;;;;;;;3.42;2.67;;;29.60;92.80;;;;;;5085495;28;20198;-81
2021/06/01 08:33:26;;;;;;;3.08;2.78;;;30.20;92.40;;;;;;5077802;28;20199;-81
2021/06/01 08:35:53;;;;;;;3.08;2.42;;;30.00;92.00;;;;;;5088226;28;20195;-82
2021/06/01 08:38:21;;;;;;;3.55;2.60;;;30.60;91.20;;;;;;5089076;28;20321;-81
2021/06/01 08:40:51;;;;;;;3.67;3.10;;;30.00;89.60;;;;;;5085388;28;20205;-81
2021/06/01 08:43:24;;;;;;;3.60;2.75;;;29.40;90.40;;;;;;5085325;28;20198;-81
2021/06/01 08:45:52;;;;;;;4.10;2.65;;;28.90;92.30;;;;;;5092492;28;20245;-83
2021/06/01 08:48:20;;;;;;;3.47;2.63;;;29.10;94.50;;;;;;5092965;28;20736;-83
2021/06/01 08:50:48;;;;;;;3.72;2.63;;;29.70;92.40;;;;;;5088959;28;20195;-83
2021/06/01 08:53:15;;;;;;;5.68;3.05;;;29.30;92.00;;;;;;5088255;28;20229;-84
2021/06/01 08:55:44;;;;;;;6.00;2.72;;;29.30;91.70;;;;;;5085022;28;20651;-84
2021/06/01 08:58:13;;;;;;;3.60;2.67;;;29.50;91.40;;;;;;5081039;28;20869;-83
2021/06/01 09:00:40;;;;;;;3.33;2.67;;;30.10;92.60;;;;;;5091815;28;20237;-83
2021/06/01 09:03:10;;;;;;;6.78;2.90;;;31.40;90.30;;;;;;5081992;28;20230;-82
2021/06/01 09:05:40;;;;;;;5.05;3.00;;;30.50;90.30;;;;;;5089108;28;20227;-82
2021/06/01 09:08:09;;;;;;;3.47;2.60;;;30.30;90.00;;;;;;5090265;28;20198;-83
2021/06/01 09:10:48;;;;;;;3.00;2.38;;;30.10;91.40;;;;;;5080827;28;20264;-83
2021/06/01 09:21:30;;;;;;;6.85;3.20;;;30.50;88.60;;;;;;5079666;28;20646;-83
2021/06/01 09:24:00;;;;;;;3.38;2.90;;;30.20;88.90;;;;;;5086793;28;20208;-82
2021/06/01 09:26:53;;;;;;;2.80;2.60;;;30.60;87.60;;;;;;5081580;28;21128;-83
2021/06/01 09:29:22;;;;;;;3.08;2.60;;;30.80;90.00;;;;;;5083801;28;20199;-83
2021/06/01 09:32:08;;;;;;;4.75;2.58;;;30.60;85.10;;;;;;5089948;28;20791;-83
2021/06/01 09:34:37;;;;;;;4.22;2.60;;;29.40;85.40;;;;;;5079996;28;20222;-83
2021/06/01 09:37:19;;;;;;;3.75;2.70;;;29.70;86.00;;;;;;5090500;28;20240;-83
2021/06/01 09:39:46;;;;;;;3.90;2.60;;;29.40;86.80;;;;;;5087595;28;20255;-83
2021/06/01 09:42:25;;;;;;;3.80;2.85;;;29.70;85.20;;;;;;5102826;28;20229;-83
2021/06/01 09:45:36;;;;;;;5.22;2.72;;;29.90;84.70;;;;;;5099708;28;20230;-84
2021/06/01 09:48:07;;;;;;;4.60;2.63;;;30.30;86.00;;;;;;5076529;28;20190;-84
2021/06/01 09:50:38;;;;;;;3.80;2.70;;;31.10;82.50;;;;;;5082578;28;20265;-84
2021/06/01 09:53:08;;;;;;;5.07;2.60;;;31.00;82.30;;;;;;5090332;28;20260;-85
2021/06/01 09:55:41;;;;;;;4.70;2.90;;;30.60;81.50;;;;;;5086654;28;20230;-85
2021/06/01 09:58:10;;;;;;;4.43;2.70;;;30.50;83.50;;;;;;5082163;28;20290;-82
2021/06/01 10:00:39;;;;;;;4.15;2.35;;;31.50;81.30;;;;;;5074978;28;20277;-87
2021/06/01 10:03:15;;;;;;;4.07;2.50;;;31.50;79.50;;;;;;5092300;28;20211;-86
2021/06/01 10:05:43;;;;;;;5.47;2.45;;;31.70;77.80;;;;;;5064619;28;20198;-83
2021/06/01 10:08:13;;;;;;;6.72;2.88;;;30.80;79.10;;;;;;5079764;28;20219;-83
2021/06/01 10:13:38;;;;;;;6.50;2.70;;;31.30;75.70;;;;;;5075399;28;20191;-83
2021/06/01 10:16:16;;;;;;;7.13;2.50;;;30.60;79.40;;;;;;5074735;28;20191;-82
2021/06/01 10:18:46;;;;;;;4.53;2.60;;;29.90;79.40;;;;;;5083429;28;20194;-87
2021/06/01 10:21:17;;;;;;;4.63;2.58;;;30.60;78.10;;;;;;5091066;28;20222;-87
2021/06/01 10:23:47;;;;;;;3.55;2.80;;;31.00;81.20;;;;;;5082474;28;20199;-87
2021/06/01 10:26:14;;;;;;;7.45;2.80;;;31.00;78.00;;;;;;5075324;28;20290;-88
2021/06/01 10:28:46;;;;;;;4.72;2.70;;;31.10;78.20;;;;;;5068536;28;20253;-88
2021/06/01 10:31:14;;;;;;;3.92;2.72;;;30.60;79.30;;;;;;5093071;28;20199;-85
2021/06/01 10:33:47;;;;;;;3.92;2.50;;;30.30;78.20;;;;;;5086248;28;20237;-88
2021/06/01 10:42:27;;;;;;;3.80;2.83;;;30.30;79.60;;;;;;5074566;28;20260;-87
2021/06/01 10:44:53;;;;;;;3.65;2.50;;;31.40;83.10;;;;;;5082340;28;20745;-86
2021/06/01 10:50:37;;;;;;;3.15;2.53;;;32.70;77.80;;;;;;5083453;28;20629;-87
2021/06/01 10:53:09;;;;;;;3.85;2.67;;;33.70;76.90;;;;;;5068754;28;20330;-88
2021/06/01 10:55:56;;;;;;;3.83;2.50;;;33.00;76.10;;;;;;5074194;28;20195;-85
2021/06/01 10:58:26;;;;;;;5.13;2.70;;;32.90;75.40;;;;;;5085896;28;20372;-85
2021/06/01 11:04:07;;;;;;;2.72;2.53;;;33.00;75.80;;;;;;5077041;28;20210;-86
2021/06/01 11:07:16;;;;;;;4.38;2.70;;;33.30;74.40;;;;;;5080567;28;20709;-89
2021/06/01 11:09:49;;;;;;;4.75;3.10;;;32.40;77.30;;;;;;5076040;28;20279;-86
2021/06/01 11:12:45;;;;;;;4.05;2.60;;;31.70;76.00;;;;;;5089343;28;20202;-86
2021/06/01 11:15:25;;;;;;;3.97;2.78;;;32.00;76.40;;;;;;5077803;28;20194;-86
2021/06/01 11:17:52;;;;;;;3.60;2.40;;;32.20;78.90;;;;;;5082964;28;20194;-85
2021/06/01 11:20:24;;;;;;;2.85;2.60;;;;;;;;;;5090648;28;20202;-85
2021/06/01 11:23:10;;;;;;;5.15;2.53;;;;;;;;;;5088098;28;20199;-87
2021/06/01 11:32:45;;;;;;;3.78;2.40;;;;;;;;;;5085433;28;20282;-85
2021/06/01 11:34:31;;;;;;;5.10;2.80;;;;;;;;;;5084592;28;20201;-86
2021/06/01 11:36:58;;;;;;;3.20;2.55;;;;;;;;;;5079146;28;20233;-86
2021/06/01 11:39:34;;;;;;;5.18;2.45;;;;;;;;;;5079195;28;20227;-86
2021/06/01 11:44:45;;;;;;;3.33;2.20;;;;;;;;;;5076274;28;20217;-87
2021/06/01 11:47:16;;;;;;;3.25;2.40;;;;;;;;;;5076646;28;20219;-88
2021/06/01 11:52:28;;;;;;;6.45;3.03;;;;;;;;;;5077510;28;20737;-88
2021/06/01 11:54:56;;;;;;;3.05;2.50;;;;;;;;;;5082406;28;20230;-87
2021/06/01 11:57:27;;;;;;;3.97;2.40;;;;;;;;;;5087658;28;20207;-87
2021/06/01 12:02:54;;;;;;;3.25;1.98;;;;;;;;;;5086804;28;20297;-88
2021/06/01 12:05:32;;;;;;;2.75;2.47;;;;;;;;;;5089091;28;20210;-88
2021/06/01 12:19:14;;;;;;;2.65;2.45;;;;;;;;;;5089305;28;20406;-87
2021/06/01 12:27:27;;;;;;;2.85;2.50;;;;;;;;;;5097987;22;20227;-88
2021/06/01 12:33:14;;;;;;;5.68;2.40;;;;;;;;;;5046242;28;20238;-88
2021/06/01 12:45:06;;;;;;;2.72;2.20;;;;;;;;;;5034234;28;20203;-86
2021/06/01 13:20:17;;;;;;;2.38;2.17;;;;;;;;;;4990604;28;20248;-85
2021/06/01 13:23:06;;;;;;;2.33;1.90;;;;;;;;;;4987632;28;20244;-85
2021/06/01 13:40:50;;;;;;;3.70;1.98;;;;;;;;;;5035495;28;20211;-87
2021/06/01 13:46:33;;;;;;;2.88;2.10;;;;;;;;;;5047078;28;20203;-86
2021/06/01 14:00:55;;;;;;;3.15;2.28;;;;;;;;;;4838460;29;20747;-86
2021/06/01 14:09:39;;;;;;;4.80;2.65;;;;;;;;;;4839237;29;20383;-86
2021/06/01 14:21:12;;;;;;;4.47;2.38;;;;;;;;;;4801884;29;20332;-85
2021/06/01 14:30:12;;;;;;;6.03;2.97;;;;;;;;;;5030468;28;20235;-85
2021/06/01 15:11:19;;;;;;;3.90;2.83;;;;;;;;;;4942759;29;20587;-84
2021/06/01 15:23:06;;;;;;;3.33;2.75;;;;;;;;;;5027606;28;20211;-84
2021/06/01 15:31:35;;;;;;;3.28;2.97;;;;;;;;;;5027963;28;20446;-84
2021/06/01 15:48:42;;;;;;;3.08;2.80;;;;;;;;;;5033919;28;20235;-83
2021/06/01 16:14:41;;;;;;;3.05;2.65;;;;;;;;;;4902336;29;20207;-85
2021/06/01 16:23:20;;;;;;;3.00;2.80;;;;;;;;;;4878768;29;20205;-85
2021/06/01 16:32:12;;;;;;;3.55;3.03;;;;;;;;;;4821299;29;20208;-85
2021/06/01 17:07:58;;;;;;;3.80;2.67;;;;;;;;;;4910293;29;20836;-86
2021/06/01 17:13:45;;;;;;;5.07;3.00;;;;;;;;;;4944579;29;20628;-85
2021/06/01 17:37:15;;;;;;;;;;;;;;;;;;;;;
2021/06/01 17:42:37;;;;;;;3.00;2.70;;;;;;;;;;4872264;29;20260;-87
2021/06/01 17:45:13;;;;;;;3.67;3.00;;;;;;;;;;4912200;29;20297;-86
2021/06/01 17:48:02;;;;;;;;;;;;;;;;;;;;;
2021/06/01 17:50:51;;;;;;;3.58;2.40;;;;;;;;;;4870543;29;20308;-86
2021/06/01 17:56:51;;;;;;;2.90;2.70;;;;;;;;;;4880597;29;20209;-85
2021/06/01 17:59:27;;;;;;;5.38;3.05;;;;;;;;;;4894002;29;20283;-85
2021/06/01 18:02:11;;;;;;;3.85;3.25;;;;;;;;;;4897969;29;20284;-86
2021/06/01 18:04:54;;;;;;;3.22;2.80;;;;;;;;;;4890970;29;20214;-83
2021/06/01 18:07:47;;;;;;;2.70;2.47;;;;;;;;;;4899120;29;20233;-83
2021/06/01 18:43:12;;;;;;;3.17;2.80;;;;;;;;;;4943313;28;20256;-84
2021/06/01 19:50:19;;;;;;;3.13;2.83;;;;;;;;;;4810699;29;20278;-84
2021/06/01 19:53:06;;;;;;;4.05;2.80;;;;;;;;;;4802774;29;20845;-84
2021/06/01 19:55:57;;;;;;;3.88;2.97;;;;;;;;;;4805020;29;20227;-83
2021/06/01 20:07:22;;;;;;;4.07;3.33;;;;;;;;;;4897253;29;20720;-84
2021/06/01 20:10:08;;;;;;;3.50;3.20;;;;;;;;;;4945256;28;20218;-84
2021/06/01 20:18:12;;;;;;;3.20;2.90;;;;;;;;;;5002377;28;20256;-84
2021/06/01 20:20:44;;;;;;;3.92;3.33;;;;;;;;;;5006036;28;20747;-84
2021/06/01 20:23:18;;;;;;;3.38;3.08;;;;;;;;;;5015344;28;20201;-83
2021/06/01 20:25:51;;;;;;;3.42;3.13;;;;;;;;;;5008331;28;20246;-84
2021/06/01 20:28:37;;;;;;;4.28;3.22;;;;;;;;;;4995461;28;20312;-83
2021/06/01 20:31:17;;;;;;;4.22;3.28;;;;;;;;;;4984274;28;20256;-84
2021/06/01 20:33:50;;;;;;;3.78;2.97;;;;;;;;;;4995438;28;20693;-83
2021/06/01 20:36:19;;;;;;;3.70;3.40;;;;;;;;;;4985736;28;20252;-83